Terminal Aerodrome Forecast
Issued by NWS Springfield, MO

Home | Current Version | Previous Version | Text Only | Print | Product List | Glossary On
Versions: 1 2 3 4 5 6 7 8 9 10 11 12 13 14
000
FTUS43 KSGF 271400 AAA
TAFSGF
TAF AMD
KSGF 271458Z 2715/2812 30010G15KT P6SM BKN025 OVC250
     FM271700 32012G18KT P6SM SCT035 BKN250
     FM280000 34005KT P6SM SCT250=

USA.gov is the U.S. government's official web portal to all federal, state and local government web resources and services.